createdAt,value
2022-09-17T00:01:43.104Z,5.32
2022-09-17T00:04:11.835Z,5.47
2022-09-17T00:06:41.827Z,6.65
2022-09-17T00:09:10.604Z,4.82
2022-09-17T00:11:40.639Z,5.20
2022-09-17T00:14:14.375Z,5.60
2022-09-17T00:16:44.142Z,5.35
2022-09-17T00:19:17.024Z,5.03
2022-09-17T00:21:45.837Z,5.05
2022-09-17T00:24:15.357Z,5.57
2022-09-17T00:26:44.126Z,5.22
2022-09-17T00:29:14.362Z,4.43
2022-09-17T00:31:43.212Z,4.88
2022-09-17T00:34:12.324Z,4.38
2022-09-17T00:36:41.301Z,4.60
2022-09-17T00:39:11.728Z,4.38
2022-09-17T00:41:40.541Z,4.70
2022-09-17T00:44:53.080Z,4.88
2022-09-17T00:47:28.897Z,4.60
2022-09-17T00:49:59.123Z,4.25
2022-09-17T00:52:30.882Z,4.72
2022-09-17T00:55:02.431Z,4.97
2022-09-17T00:57:31.517Z,5.13
2022-09-17T01:00:00.351Z,4.63
2022-09-17T01:02:30.493Z,4.72
2022-09-17T01:04:59.472Z,4.43
2022-09-17T01:07:44.232Z,4.60
2022-09-17T01:10:18.681Z,4.13
2022-09-17T01:12:58.855Z,5.13
2022-09-17T01:15:31.950Z,4.50
2022-09-17T01:18:13.019Z,4.22
2022-09-17T01:21:15.209Z,4.45
2022-09-17T01:23:54.635Z,4.85
2022-09-17T01:26:52.013Z,4.60
2022-09-17T01:29:27.331Z,4.60
2022-09-17T01:31:59.149Z,4.63
2022-09-17T01:34:30.118Z,7.18
2022-09-17T01:37:03.446Z,4.20
2022-09-17T01:39:41.532Z,4.07
2022-09-17T01:42:16.950Z,4.15
2022-09-17T01:44:50.779Z,5.50
2022-09-17T01:47:23.448Z,4.18
2022-09-17T01:49:53.261Z,4.13
2022-09-17T01:52:22.429Z,4.03
2022-09-17T01:54:52.204Z,4.20
2022-09-17T01:57:24.331Z,4.88
2022-09-17T01:59:54.056Z,4.15
2022-09-17T02:02:27.760Z,3.70
2022-09-17T02:04:59.106Z,3.97
2022-09-17T02:07:27.909Z,4.43
2022-09-17T02:09:59.447Z,4.22
2022-09-17T02:12:31.606Z,3.90
2022-09-17T02:15:01.841Z,4.03
2022-09-17T02:17:33.711Z,3.83
2022-09-17T02:20:02.694Z,4.20
2022-09-17T02:22:34.011Z,3.95
2022-09-17T02:25:05.476Z,3.97
2022-09-17T02:27:43.237Z,4.15
2022-09-17T02:30:12.370Z,4.32
2022-09-17T02:32:43.145Z,3.95
2022-09-17T02:35:13.415Z,3.70
2022-09-17T02:37:42.220Z,4.10
2022-09-17T02:40:11.764Z,3.90
2022-09-17T02:42:52.026Z,4.50
2022-09-17T02:45:25.009Z,4.13
2022-09-17T02:48:10.735Z,5.28
2022-09-17T02:50:47.704Z,3.55
2022-09-17T02:53:31.808Z,4.18
2022-09-17T02:56:03.494Z,4.07
2022-09-17T02:58:34.202Z,3.67
2022-09-17T03:01:06.389Z,3.70
2022-09-17T03:03:37.397Z,3.95
2022-09-17T03:06:07.014Z,3.70
2022-09-17T03:08:38.225Z,3.83
2022-09-17T03:11:08.876Z,3.72
2022-09-17T03:13:37.642Z,3.80
2022-09-17T03:16:06.896Z,3.60
2022-09-17T03:18:37.026Z,3.80
2022-09-17T03:21:05.834Z,3.95
2022-09-17T03:23:34.791Z,3.75
2022-09-17T03:26:03.504Z,3.42
2022-09-17T03:28:32.180Z,4.07
2022-09-17T03:31:01.723Z,4.03
2022-09-17T03:33:31.045Z,3.63
2022-09-17T03:36:01.162Z,4.07
2022-09-17T03:38:30.352Z,3.67
2022-09-17T03:41:00.185Z,3.45
2022-09-17T03:43:28.968Z,4.10
2022-09-17T03:45:57.765Z,3.83
2022-09-17T03:48:26.564Z,3.63
2022-09-17T03:50:55.400Z,4.00
2022-09-17T03:53:25.523Z,4.10
2022-09-17T03:55:54.335Z,3.88
2022-09-17T03:58:23.916Z,3.47
2022-09-17T04:00:53.435Z,3.65
2022-09-17T04:03:22.727Z,3.53
2022-09-17T04:05:51.495Z,3.83
2022-09-17T04:08:20.325Z,3.10
2022-09-17T04:10:50.623Z,3.67
2022-09-17T04:13:19.447Z,3.45
2022-09-17T04:15:48.700Z,3.83
2022-09-17T04:18:17.461Z,3.70
2022-09-17T04:20:46.206Z,3.47
2022-09-17T04:23:14.850Z,4.57
2022-09-17T04:25:43.583Z,3.65
2022-09-17T04:28:13.649Z,3.65
2022-09-17T04:30:43.272Z,3.95
2022-09-17T04:33:11.977Z,3.47
2022-09-17T04:35:40.644Z,3.67
2022-09-17T04:38:10.018Z,3.92
2022-09-17T04:40:38.792Z,3.67
2022-09-17T04:43:07.880Z,3.75
2022-09-17T04:45:37.874Z,3.88
2022-09-17T04:48:06.648Z,4.57
2022-09-17T04:50:35.423Z,3.65
2022-09-17T04:53:04.163Z,3.33
2022-09-17T04:55:32.887Z,3.55
2022-09-17T04:58:01.822Z,3.42
2022-09-17T05:00:31.013Z,3.92
2022-09-17T05:03:01.009Z,3.25
2022-09-17T05:05:29.684Z,3.75
2022-09-17T05:07:58.401Z,3.55
2022-09-17T05:10:27.146Z,3.30
2022-09-17T05:12:56.804Z,3.70
2022-09-17T05:15:26.021Z,3.83
2022-09-17T05:17:54.678Z,3.78
2022-09-17T05:20:24.857Z,3.63
2022-09-17T05:22:53.811Z,3.40
2022-09-17T05:25:24.245Z,4.75
2022-09-17T05:27:53.127Z,4.47
2022-09-17T05:30:21.994Z,3.58
2022-09-17T05:32:50.712Z,3.60
2022-09-17T05:35:19.641Z,3.67
2022-09-17T05:37:49.671Z,3.80
2022-09-17T05:40:18.673Z,3.40
2022-09-17T05:42:47.460Z,5.47
2022-09-17T05:45:16.134Z,3.65
2022-09-17T05:47:44.804Z,3.42
2022-09-17T05:50:13.797Z,3.67
2022-09-17T05:52:43.745Z,3.67
2022-09-17T05:55:13.898Z,3.47
2022-09-17T05:57:42.801Z,3.50
2022-09-17T06:00:12.840Z,3.92
2022-09-17T06:02:41.804Z,3.55
2022-09-17T06:05:10.927Z,3.33
2022-09-17T06:07:39.875Z,3.47
2022-09-17T06:10:09.541Z,6.20
2022-09-17T06:12:39.623Z,5.07
2022-09-17T06:15:08.993Z,11.15
2022-09-17T06:17:37.905Z,20.33
2022-09-17T06:20:07.305Z,19.67
2022-09-17T06:22:35.980Z,22.45
2022-09-17T06:25:05.029Z,32.88
2022-09-17T06:27:33.985Z,32.55
2022-09-17T06:30:04.245Z,21.40
2022-09-17T06:32:33.378Z,22.13
2022-09-17T06:35:02.521Z,18.23
2022-09-17T06:37:31.620Z,24.63
2022-09-17T06:40:00.516Z,18.50
2022-09-17T06:42:29.898Z,14.48
2022-09-17T06:45:00.399Z,15.85
2022-09-17T06:47:34.733Z,14.75
2022-09-17T06:50:03.721Z,13.32
2022-09-17T06:52:32.396Z,11.95
2022-09-17T06:55:01.292Z,9.20
2022-09-17T06:57:29.957Z,9.55
2022-09-17T06:59:58.739Z,9.52
2022-09-17T07:02:27.502Z,12.75
2022-09-17T07:04:57.982Z,10.48
2022-09-17T07:07:26.687Z,10.40
2022-09-17T07:09:55.447Z,9.50
2022-09-17T07:12:24.123Z,12.18
2022-09-17T07:14:52.837Z,9.15
2022-09-17T07:17:21.625Z,13.95
2022-09-17T07:19:51.188Z,7.60
2022-09-17T07:22:21.447Z,9.70
2022-09-17T07:24:50.209Z,7.38
2022-09-17T07:27:18.920Z,8.93
2022-09-17T07:29:47.710Z,7.10
2022-09-17T07:32:16.497Z,5.18
2022-09-17T07:34:45.161Z,7.32
2022-09-17T07:37:14.073Z,7.03
2022-09-17T07:39:44.301Z,9.40
2022-09-17T07:42:13.145Z,6.63
2022-09-17T07:44:41.860Z,6.47
2022-09-17T07:47:10.786Z,5.97
2022-09-17T07:49:39.534Z,6.93
2022-09-17T07:52:08.366Z,4.55
2022-09-17T07:54:38.023Z,7.15
2022-09-17T07:57:08.183Z,7.28
2022-09-17T07:59:37.273Z,7.70
2022-09-17T08:02:06.207Z,89.55
2022-09-17T08:04:35.003Z,73.32
2022-09-17T08:07:03.790Z,115.07
2022-09-17T08:09:32.557Z,70.93
2022-09-17T08:12:01.206Z,56.20
2022-09-17T08:14:31.436Z,67.22
2022-09-17T08:17:00.159Z,57.20
2022-09-17T08:19:32.056Z,46.25
2022-09-17T08:22:00.807Z,45.90
2022-09-17T08:24:29.813Z,49.58
2022-09-17T08:26:58.502Z,62.78
2022-09-17T08:29:27.208Z,39.95
2022-09-17T08:31:57.260Z,42.92
2022-09-17T08:34:25.968Z,41.38
2022-09-17T08:36:54.709Z,35.15
2022-09-17T08:39:23.361Z,27.92
2022-09-17T08:41:56.183Z,34.63
2022-09-17T08:44:29.034Z,33.30
2022-09-17T08:47:02.292Z,29.98
2022-09-17T08:49:37.940Z,24.92
2022-09-17T08:52:16.436Z,31.77
2022-09-17T08:54:48.648Z,24.65
2022-09-17T08:57:20.162Z,25.50
2022-09-17T08:59:51.162Z,25.40
2022-09-17T09:02:25.944Z,29.38
2022-09-17T09:05:07.033Z,29.35
2022-09-17T09:07:38.152Z,24.35
2022-09-17T09:10:14.306Z,26.10
2022-09-17T09:12:42.960Z,25.75
2022-09-17T09:15:38.847Z,23.58
2022-09-17T09:18:17.985Z,25.67
2022-09-17T09:20:51.810Z,22.67
2022-09-17T09:23:21.775Z,17.80
2022-09-17T09:25:55.712Z,23.50
2022-09-17T09:28:44.540Z,20.38
2022-09-17T09:31:45.543Z,21.17
2022-09-17T09:34:15.736Z,18.27
2022-09-17T09:36:44.800Z,18.20
2022-09-17T09:39:16.236Z,17.02
2022-09-17T09:41:47.006Z,20.38
2022-09-17T09:44:17.222Z,21.08
2022-09-17T09:47:15.591Z,14.95
2022-09-17T09:49:59.845Z,18.33
2022-09-17T09:52:37.052Z,19.73
2022-09-17T09:55:16.057Z,20.92
2022-09-17T09:57:46.003Z,19.00
2022-09-17T10:00:29.311Z,12.27
2022-09-17T10:03:01.418Z,16.00
2022-09-17T10:05:31.878Z,18.67
2022-09-17T10:08:00.692Z,17.58
2022-09-17T10:10:29.799Z,16.90
2022-09-17T10:13:08.528Z,14.88
2022-09-17T10:15:37.654Z,18.52
2022-09-17T10:18:18.885Z,11.65
2022-09-17T10:21:09.782Z,12.30
2022-09-17T10:23:38.809Z,20.65
2022-09-17T10:26:07.602Z,12.13
2022-09-17T10:28:45.331Z,13.45
2022-09-17T10:31:15.235Z,11.30
2022-09-17T10:33:57.634Z,13.35
2022-09-17T10:36:43.918Z,11.52
2022-09-17T10:39:31.984Z,9.00
2022-09-17T10:42:02.722Z,15.40
2022-09-17T10:44:32.370Z,13.85
2022-09-17T10:47:06.091Z,15.18
2022-09-17T10:49:40.943Z,10.18
2022-09-17T10:52:19.424Z,12.07
2022-09-17T10:55:30.001Z,10.80
2022-09-17T10:58:18.553Z,15.02
2022-09-17T11:00:53.684Z,10.60
2022-09-17T11:03:56.072Z,14.27
2022-09-17T11:06:36.414Z,10.07
2022-09-17T11:09:12.762Z,20.73
2022-09-17T11:11:48.718Z,20.48
2022-09-17T11:14:25.516Z,19.40
2022-09-17T11:16:58.876Z,21.75
2022-09-17T11:19:32.209Z,22.05
2022-09-17T11:22:04.193Z,20.83
2022-09-17T11:24:48.428Z,24.42
2022-09-17T11:27:31.032Z,17.77
2022-09-17T11:30:06.285Z,18.48
2022-09-17T11:32:53.904Z,15.38
2022-09-17T11:35:24.008Z,16.60
2022-09-17T11:37:57.725Z,15.82
2022-09-17T11:40:33.896Z,15.52
2022-09-17T11:43:04.826Z,14.88
2022-09-17T11:45:35.064Z,12.63
2022-09-17T11:48:06.823Z,11.85
2022-09-17T11:50:37.882Z,13.18
2022-09-17T11:53:08.169Z,17.92
2022-09-17T11:55:41.139Z,15.50
2022-09-17T11:58:14.508Z,12.88
2022-09-17T12:00:46.828Z,16.08
2022-09-17T12:03:17.746Z,9.88
2022-09-17T12:05:48.105Z,10.32
2022-09-17T12:08:18.119Z,16.50
2022-09-17T12:10:50.893Z,12.05
2022-09-17T12:13:25.709Z,16.70
2022-09-17T12:16:01.535Z,13.25
2022-09-17T12:18:34.048Z,8.70
2022-09-17T12:21:04.620Z,10.93
2022-09-17T12:23:38.875Z,12.55
2022-09-17T12:26:15.486Z,11.15
2022-09-17T12:28:47.866Z,11.40
2022-09-17T12:31:18.740Z,9.48
2022-09-17T12:33:48.773Z,12.02
2022-09-17T12:36:22.651Z,15.52
2022-09-17T12:39:30.938Z,10.02
2022-09-17T12:42:04.660Z,10.77
2022-09-17T12:45:03.124Z,11.48
2022-09-17T12:47:47.718Z,10.60
2022-09-17T12:50:31.323Z,11.27
2022-09-17T12:53:08.365Z,11.77
2022-09-17T12:55:45.571Z,17.02
2022-09-17T12:58:26.717Z,21.05
2022-09-17T13:00:58.474Z,18.02
2022-09-17T13:03:29.829Z,17.45
2022-09-17T13:06:45.315Z,24.48
2022-09-17T13:10:02.747Z,19.20
2022-09-17T13:12:34.136Z,22.05
2022-09-17T13:15:21.681Z,17.50
2022-09-17T13:18:12.708Z,18.67
2022-09-17T13:20:49.527Z,19.73
2022-09-17T13:23:18.227Z,18.92
2022-09-17T13:25:51.966Z,16.98
2022-09-17T13:28:20.383Z,15.57
2022-09-17T13:30:59.927Z,19.40
2022-09-17T13:33:54.617Z,18.70
2022-09-17T13:36:47.159Z,16.45
2022-09-17T13:39:46.360Z,17.25
2022-09-17T13:42:24.590Z,13.27
2022-09-17T13:44:55.015Z,19.23
2022-09-17T13:47:27.697Z,20.75
2022-09-17T13:50:00.074Z,14.50
2022-09-17T13:52:35.190Z,13.35
2022-09-17T13:55:04.058Z,16.58
2022-09-17T13:57:33.618Z,18.50
2022-09-17T14:00:02.480Z,16.95
2022-09-17T14:02:37.682Z,13.00
2022-09-17T14:05:31.071Z,14.13
2022-09-17T14:08:31.260Z,10.73
2022-09-17T14:11:03.982Z,15.07
2022-09-17T14:13:50.563Z,11.13
2022-09-17T14:16:40.543Z,13.57
2022-09-17T14:19:36.960Z,16.55
2022-09-17T14:22:15.201Z,13.82
2022-09-17T14:24:50.057Z,13.23
2022-09-17T14:27:48.213Z,11.82
2022-09-17T14:30:19.590Z,11.30
2022-09-17T14:33:00.301Z,10.13
2022-09-17T14:35:36.652Z,11.02
2022-09-17T14:38:10.544Z,8.48
2022-09-17T14:40:43.493Z,10.60
2022-09-17T14:43:17.516Z,8.52
2022-09-17T14:45:45.952Z,10.07
2022-09-17T14:48:31.642Z,11.75
2022-09-17T14:51:30.386Z,10.05
2022-09-17T14:54:22.231Z,10.50
2022-09-17T14:56:56.437Z,9.52
2022-09-17T14:59:43.503Z,11.50
2022-09-17T15:02:31.941Z,8.15
2022-09-17T15:05:00.686Z,9.60
2022-09-17T15:07:30.698Z,8.55
2022-09-17T15:10:09.555Z,8.98
2022-09-17T15:12:38.768Z,8.98
2022-09-17T15:15:11.190Z,9.23
2022-09-17T15:17:39.680Z,7.97
2022-09-17T15:20:11.209Z,8.38
2022-09-17T15:22:41.063Z,9.30
2022-09-17T15:25:11.449Z,8.90
2022-09-17T15:27:41.290Z,7.97
2022-09-17T15:30:14.330Z,9.93
2022-09-17T15:32:44.256Z,8.02
2022-09-17T15:35:22.097Z,6.90
2022-09-17T15:40:42.114Z,8.13
2022-09-17T15:43:18.601Z,9.38
2022-09-17T15:45:47.061Z,7.03
2022-09-17T15:48:35.723Z,6.68
2022-09-17T15:51:05.461Z,5.70
2022-09-17T15:53:36.472Z,6.93
2022-09-17T15:56:07.493Z,5.57
2022-09-17T15:58:39.081Z,6.25
2022-09-17T16:01:55.993Z,8.82
2022-09-17T16:04:32.261Z,5.10
2022-09-17T16:07:25.457Z,5.75
2022-09-17T16:09:55.440Z,7.03
2022-09-17T16:12:24.897Z,8.18
2022-09-17T16:14:54.353Z,5.78
2022-09-17T16:17:29.460Z,7.10
2022-09-17T16:20:02.508Z,6.63
2022-09-17T16:22:33.819Z,6.32
2022-09-17T16:25:03.903Z,7.25
2022-09-17T16:27:34.148Z,5.88
2022-09-17T16:30:09.419Z,7.35
2022-09-17T16:32:37.969Z,6.68
2022-09-17T16:35:07.082Z,5.90
2022-09-17T16:37:35.572Z,5.93
2022-09-17T16:40:06.596Z,5.65
2022-09-17T16:42:35.148Z,6.68
2022-09-17T16:45:04.219Z,7.40
2022-09-17T16:47:37.267Z,8.02
2022-09-17T16:50:07.321Z,7.65
2022-09-17T16:52:35.853Z,8.20
2022-09-17T16:55:06.646Z,7.85
2022-09-17T16:57:35.347Z,6.80
2022-09-17T17:00:05.364Z,7.72
2022-09-17T17:02:34.277Z,7.65
2022-09-17T17:05:02.687Z,11.27
2022-09-17T17:07:32.230Z,8.40
2022-09-17T17:10:00.645Z,8.48
2022-09-17T17:12:31.072Z,7.97
2022-09-17T17:14:59.494Z,7.72
2022-09-17T17:17:28.130Z,7.15
2022-09-17T17:19:56.590Z,8.65
2022-09-17T17:22:25.205Z,8.23
2022-09-17T17:24:53.591Z,6.60
2022-09-17T17:27:22.092Z,10.00
2022-09-17T17:29:52.351Z,9.88
2022-09-17T17:32:20.783Z,6.68
2022-09-17T17:34:50.386Z,8.00
2022-09-17T17:37:18.977Z,6.85
2022-09-17T17:39:47.477Z,5.60
2022-09-17T17:42:15.929Z,9.32
2022-09-17T17:44:45.236Z,6.65
2022-09-17T17:47:15.014Z,6.25
2022-09-17T17:49:44.641Z,6.25
2022-09-17T17:52:13.517Z,7.05
2022-09-17T17:54:41.951Z,7.78
2022-09-17T17:57:11.510Z,5.65
2022-09-17T17:59:39.985Z,7.43
2022-09-17T18:02:08.775Z,7.63
2022-09-17T18:04:38.657Z,5.93
2022-09-17T18:07:07.949Z,8.32
2022-09-17T18:09:36.876Z,7.82
2022-09-17T18:12:05.714Z,6.18
2022-09-17T18:14:34.157Z,7.22
2022-09-17T18:17:02.700Z,7.78
2022-09-17T18:19:31.128Z,8.38
2022-09-17T18:22:01.022Z,5.63
2022-09-17T18:24:29.629Z,6.47
2022-09-17T18:26:58.070Z,7.28
2022-09-17T18:29:26.645Z,12.00
2022-09-17T18:31:55.149Z,9.02
2022-09-17T18:34:23.673Z,6.05
2022-09-17T18:36:53.045Z,6.25
2022-09-17T18:42:11.714Z,7.65
2022-09-17T18:44:41.907Z,7.68
2022-09-17T18:47:10.334Z,5.93
2022-09-17T18:49:38.825Z,5.85
2022-09-17T18:52:07.519Z,5.65
2022-09-17T18:54:37.484Z,5.18
2022-09-17T18:57:06.609Z,5.10
2022-09-17T18:59:35.481Z,6.70
2022-09-17T19:02:04.087Z,4.85
2022-09-17T19:04:33.180Z,6.00
2022-09-17T19:07:02.012Z,4.68
2022-09-17T19:09:30.543Z,5.63
2022-09-17T19:12:01.138Z,6.78
2022-09-17T19:14:31.261Z,6.28
2022-09-17T19:16:59.646Z,5.80
2022-09-17T19:19:29.100Z,5.20
2022-09-17T19:21:57.561Z,5.35
2022-09-17T19:24:25.984Z,5.47
2022-09-17T19:26:55.296Z,6.13
2022-09-17T19:29:25.224Z,5.70
2022-09-17T19:31:53.847Z,7.10
2022-09-17T19:34:22.904Z,5.60
2022-09-17T19:36:52.226Z,4.78
2022-09-17T19:39:20.629Z,6.18
2022-09-17T19:41:49.028Z,5.32
2022-09-17T19:44:17.929Z,5.15
2022-09-17T19:46:50.123Z,4.90
2022-09-17T19:49:19.128Z,4.60
2022-09-17T19:51:48.209Z,6.45
2022-09-17T19:54:16.799Z,4.82
2022-09-17T19:56:45.469Z,5.85
2022-09-17T19:59:13.918Z,7.88
2022-09-17T20:01:46.087Z,5.22
2022-09-17T20:04:19.539Z,5.95
2022-09-17T20:06:48.278Z,5.43
2022-09-17T20:09:18.253Z,6.15
2022-09-17T20:11:47.127Z,4.80
2022-09-17T20:14:15.739Z,4.30
2022-09-17T20:16:45.137Z,4.50
2022-09-17T20:19:16.219Z,5.15
2022-09-17T20:21:46.233Z,5.43
2022-09-17T20:24:15.583Z,4.97
2022-09-17T20:26:44.654Z,4.45
2022-09-17T20:29:13.713Z,6.35
2022-09-17T20:31:42.763Z,3.97
2022-09-17T20:34:11.761Z,4.05
2022-09-17T20:36:40.537Z,4.38
2022-09-17T20:39:15.492Z,3.92
2022-09-17T20:41:46.593Z,3.60
2022-09-17T20:44:15.094Z,3.60
2022-09-17T20:46:43.984Z,3.83
2022-09-17T20:49:12.734Z,3.75
2022-09-17T20:51:41.669Z,3.72
2022-09-17T20:54:11.477Z,4.05
2022-09-17T20:56:39.998Z,3.60
2022-09-17T20:59:15.200Z,3.75
2022-09-17T21:01:45.149Z,3.70
2022-09-17T21:04:16.112Z,3.47
2022-09-17T21:06:44.986Z,3.10
2022-09-17T21:09:17.043Z,3.03
2022-09-17T21:11:46.210Z,3.33
2022-09-17T21:14:15.932Z,3.20
2022-09-17T21:16:44.878Z,2.53
2022-09-17T21:19:14.194Z,3.92
2022-09-17T21:21:42.573Z,3.10
2022-09-17T21:24:11.193Z,2.95
2022-09-17T21:26:41.041Z,3.17
2022-09-17T21:29:09.601Z,3.47
2022-09-17T21:31:38.426Z,3.00
2022-09-17T21:34:08.432Z,5.40
2022-09-17T21:36:38.195Z,2.97
2022-09-17T21:39:08.228Z,3.40
2022-09-17T21:41:42.051Z,2.58
2022-09-17T21:44:12.743Z,2.92
2022-09-17T21:46:41.725Z,3.38
2022-09-17T21:49:10.368Z,2.83
2022-09-17T21:51:39.598Z,3.20
2022-09-17T21:54:09.059Z,2.40
2022-09-17T21:56:37.546Z,2.95
2022-09-17T21:59:08.199Z,2.63
2022-09-17T22:01:40.967Z,3.20
2022-09-17T22:04:10.699Z,2.80
2022-09-17T22:06:39.196Z,2.20
2022-09-17T22:09:08.170Z,3.03
2022-09-17T22:11:37.782Z,3.38
2022-09-17T22:14:09.231Z,2.60
2022-09-17T22:16:40.251Z,2.40
2022-09-17T22:19:09.379Z,3.78
2022-09-17T22:21:39.844Z,2.40
2022-09-17T22:24:08.656Z,2.63
2022-09-17T22:26:39.425Z,2.92
2022-09-17T22:29:10.448Z,2.67
2022-09-17T22:31:40.492Z,2.50
2022-09-17T22:34:09.033Z,2.50
2022-09-17T22:36:37.694Z,2.38
2022-09-17T22:39:06.635Z,2.53
2022-09-17T22:41:36.780Z,2.47
2022-09-17T22:44:06.598Z,2.38
2022-09-17T22:46:36.195Z,2.33
2022-09-17T22:49:06.230Z,2.55
2022-09-17T22:51:34.749Z,3.65
2022-09-17T22:54:03.247Z,2.40
2022-09-17T22:56:32.221Z,2.30
2022-09-17T22:59:00.632Z,3.00
2022-09-17T23:01:31.271Z,2.28
2022-09-17T23:04:00.260Z,2.38
2022-09-17T23:06:31.251Z,2.40
2022-09-17T23:08:59.944Z,2.47
2022-09-17T23:11:30.586Z,2.45
2022-09-17T23:14:02.157Z,2.10
2022-09-17T23:16:30.945Z,3.30
2022-09-17T23:18:59.477Z,2.25
2022-09-17T23:21:29.207Z,2.55
2022-09-17T23:23:57.957Z,2.65
2022-09-17T23:26:28.450Z,2.40
2022-09-17T23:29:01.164Z,2.65
2022-09-17T23:31:34.855Z,2.20
2022-09-17T23:34:04.001Z,2.00
2022-09-17T23:36:35.068Z,2.03
2022-09-17T23:39:03.982Z,2.63
2022-09-17T23:41:33.425Z,2.60
2022-09-17T23:44:03.359Z,2.63
2022-09-17T23:46:33.554Z,2.30
2022-09-17T23:49:02.222Z,2.10
2022-09-17T23:51:31.728Z,2.50
2022-09-17T23:54:01.563Z,3.70
2022-09-17T23:56:30.154Z,2.30
2022-09-17T23:59:00.710Z,2.33
